sensor_id;sensor_type;location;lat;lon;timestamp;P1;durP1;ratioP1;P2;durP2;ratioP2
9082;SDS011;4577;48.704;9.000;2022-09-17T00:01:06;3.10;;;1.27;;
9082;SDS011;4577;48.704;9.000;2022-09-17T00:03:34;4.13;;;1.10;;
9082;SDS011;4577;48.704;9.000;2022-09-17T00:06:00;1.40;;;1.20;;
9082;SDS011;4577;48.704;9.000;2022-09-17T00:08:31;2.43;;;1.33;;
9082;SDS011;4577;48.704;9.000;2022-09-17T00:11:04;2.27;;;1.33;;
9082;SDS011;4577;48.704;9.000;2022-09-17T00:13:33;2.90;;;1.40;;
9082;SDS011;4577;48.704;9.000;2022-09-17T00:15:58;4.53;;;1.50;;
9082;SDS011;4577;48.704;9.000;2022-09-17T00:18:24;3.40;;;1.43;;
9082;SDS011;4577;48.704;9.000;2022-09-17T00:20:50;1.73;;;1.30;;
9082;SDS011;4577;48.704;9.000;2022-09-17T00:23:16;1.90;;;1.27;;
9082;SDS011;4577;48.704;9.000;2022-09-17T00:25:42;2.23;;;1.40;;
9082;SDS011;4577;48.704;9.000;2022-09-17T00:28:10;1.93;;;1.37;;
9082;SDS011;4577;48.704;9.000;2022-09-17T00:30:44;5.40;;;1.30;;
9082;SDS011;4577;48.704;9.000;2022-09-17T00:33:11;1.53;;;1.20;;
9082;SDS011;4577;48.704;9.000;2022-09-17T00:35:38;1.77;;;1.20;;
9082;SDS011;4577;48.704;9.000;2022-09-17T00:38:04;2.00;;;1.50;;
9082;SDS011;4577;48.704;9.000;2022-09-17T00:40:30;2.37;;;1.30;;
9082;SDS011;4577;48.704;9.000;2022-09-17T00:42:55;2.13;;;1.53;;
9082;SDS011;4577;48.704;9.000;2022-09-17T00:45:22;2.03;;;1.50;;
9082;SDS011;4577;48.704;9.000;2022-09-17T00:47:56;2.00;;;1.50;;
9082;SDS011;4577;48.704;9.000;2022-09-17T00:53:07;3.40;;;1.50;;
9082;SDS011;4577;48.704;9.000;2022-09-17T00:55:41;3.00;;;1.50;;
9082;SDS011;4577;48.704;9.000;2022-09-17T00:58:10;2.40;;;1.67;;
9082;SDS011;4577;48.704;9.000;2022-09-17T01:00:39;1.97;;;1.50;;
9082;SDS011;4577;48.704;9.000;2022-09-17T01:03:05;1.93;;;1.50;;
9082;SDS011;4577;48.704;9.000;2022-09-17T01:22:20;2.07;;;1.87;;
9082;SDS011;4577;48.704;9.000;2022-09-17T01:28:59;1.97;;;1.77;;
9082;SDS011;4577;48.704;9.000;2022-09-17T01:33:37;2.10;;;1.80;;
9082;SDS011;4577;48.704;9.000;2022-09-17T01:36:21;2.10;;;1.90;;
9082;SDS011;4577;48.704;9.000;2022-09-17T01:39:11;1.90;;;1.70;;
9082;SDS011;4577;48.704;9.000;2022-09-17T01:42:04;1.93;;;1.83;;
9082;SDS011;4577;48.704;9.000;2022-09-17T01:50:02;2.80;;;1.60;;
9082;SDS011;4577;48.704;9.000;2022-09-17T01:52:34;5.33;;;1.60;;
9082;SDS011;4577;48.704;9.000;2022-09-17T01:55:04;2.33;;;1.67;;
9082;SDS011;4577;48.704;9.000;2022-09-17T01:57:39;3.20;;;1.87;;
9082;SDS011;4577;48.704;9.000;2022-09-17T02:00:26;3.13;;;1.60;;
9082;SDS011;4577;48.704;9.000;2022-09-17T02:08:05;4.80;;;1.70;;
9082;SDS011;4577;48.704;9.000;2022-09-17T02:10:36;3.50;;;1.70;;
9082;SDS011;4577;48.704;9.000;2022-09-17T02:13:16;4.10;;;1.93;;
9082;SDS011;4577;48.704;9.000;2022-09-17T02:16:01;5.63;;;1.80;;
9082;SDS011;4577;48.704;9.000;2022-09-17T02:18:36;6.00;;;1.70;;
9082;SDS011;4577;48.704;9.000;2022-09-17T02:21:39;3.30;;;1.63;;
9082;SDS011;4577;48.704;9.000;2022-09-17T02:27:10;6.70;;;1.63;;
9082;SDS011;4577;48.704;9.000;2022-09-17T02:29:45;3.70;;;1.60;;
9082;SDS011;4577;48.704;9.000;2022-09-17T02:32:11;10.77;;;1.70;;
9082;SDS011;4577;48.704;9.000;2022-09-17T02:34:38;3.77;;;1.80;;
9082;SDS011;4577;48.704;9.000;2022-09-17T02:37:04;2.77;;;1.53;;
9082;SDS011;4577;48.704;9.000;2022-09-17T02:39:30;5.80;;;1.60;;
9082;SDS011;4577;48.704;9.000;2022-09-17T02:42:05;6.00;;;1.63;;
9082;SDS011;4577;48.704;9.000;2022-09-17T02:55:49;8.20;;;1.60;;
9082;SDS011;4577;48.704;9.000;2022-09-17T03:01:00;5.73;;;1.60;;
9082;SDS011;4577;48.704;9.000;2022-09-17T03:03:33;4.47;;;1.60;;
9082;SDS011;4577;48.704;9.000;2022-09-17T03:06:05;3.97;;;1.50;;
9082;SDS011;4577;48.704;9.000;2022-09-17T03:08:32;4.53;;;2.07;;
9082;SDS011;4577;48.704;9.000;2022-09-17T03:11:04;5.50;;;1.70;;
9082;SDS011;4577;48.704;9.000;2022-09-17T03:13:30;3.80;;;1.70;;
9082;SDS011;4577;48.704;9.000;2022-09-17T03:15:56;7.23;;;2.10;;
9082;SDS011;4577;48.704;9.000;2022-09-17T03:18:22;3.27;;;1.40;;
9082;SDS011;4577;48.704;9.000;2022-09-17T03:20:49;5.60;;;1.80;;
9082;SDS011;4577;48.704;9.000;2022-09-17T03:23:15;4.80;;;1.70;;
9082;SDS011;4577;48.704;9.000;2022-09-17T03:25:41;4.77;;;1.90;;
9082;SDS011;4577;48.704;9.000;2022-09-17T03:28:07;4.50;;;1.70;;
9082;SDS011;4577;48.704;9.000;2022-09-17T03:30:33;4.30;;;1.90;;
9082;SDS011;4577;48.704;9.000;2022-09-17T03:32:59;6.80;;;1.70;;
9082;SDS011;4577;48.704;9.000;2022-09-17T03:35:24;4.27;;;1.83;;
9082;SDS011;4577;48.704;9.000;2022-09-17T03:37:50;4.83;;;1.73;;
9082;SDS011;4577;48.704;9.000;2022-09-17T03:40:16;8.00;;;2.50;;
9082;SDS011;4577;48.704;9.000;2022-09-17T03:42:42;16.90;;;4.10;;
9082;SDS011;4577;48.704;9.000;2022-09-17T03:45:08;10.70;;;1.90;;
9082;SDS011;4577;48.704;9.000;2022-09-17T03:47:34;3.30;;;1.53;;
9082;SDS011;4577;48.704;9.000;2022-09-17T03:50:01;5.70;;;1.87;;
9082;SDS011;4577;48.704;9.000;2022-09-17T03:52:27;3.33;;;1.40;;
9082;SDS011;4577;48.704;9.000;2022-09-17T03:54:53;3.80;;;1.60;;
9082;SDS011;4577;48.704;9.000;2022-09-17T03:57:19;5.97;;;1.90;;
9082;SDS011;4577;48.704;9.000;2022-09-17T03:59:45;8.03;;;1.77;;
9082;SDS011;4577;48.704;9.000;2022-09-17T04:02:11;7.43;;;2.03;;
9082;SDS011;4577;48.704;9.000;2022-09-17T04:04:37;10.60;;;1.87;;
9082;SDS011;4577;48.704;9.000;2022-09-17T04:07:03;8.43;;;2.10;;
9082;SDS011;4577;48.704;9.000;2022-09-17T04:09:29;3.97;;;1.83;;
9082;SDS011;4577;48.704;9.000;2022-09-17T04:11:55;5.47;;;2.10;;
9082;SDS011;4577;48.704;9.000;2022-09-17T04:14:21;5.43;;;1.60;;
9082;SDS011;4577;48.704;9.000;2022-09-17T04:16:47;6.47;;;1.70;;
9082;SDS011;4577;48.704;9.000;2022-09-17T04:19:13;3.23;;;1.57;;
9082;SDS011;4577;48.704;9.000;2022-09-17T04:21:39;5.20;;;1.80;;
9082;SDS011;4577;48.704;9.000;2022-09-17T04:24:04;7.40;;;1.80;;
9082;SDS011;4577;48.704;9.000;2022-09-17T04:26:30;10.10;;;2.00;;
9082;SDS011;4577;48.704;9.000;2022-09-17T04:28:56;4.10;;;1.80;;
9082;SDS011;4577;48.704;9.000;2022-09-17T04:31:22;11.47;;;1.77;;
9082;SDS011;4577;48.704;9.000;2022-09-17T04:33:49;7.17;;;2.27;;
9082;SDS011;4577;48.704;9.000;2022-09-17T04:36:15;9.97;;;1.90;;
9082;SDS011;4577;48.704;9.000;2022-09-17T04:38:41;8.23;;;2.20;;
9082;SDS011;4577;48.704;9.000;2022-09-17T04:41:10;4.20;;;1.90;;
9082;SDS011;4577;48.704;9.000;2022-09-17T04:43:36;9.37;;;2.13;;
9082;SDS011;4577;48.704;9.000;2022-09-17T04:46:02;4.80;;;1.90;;
9082;SDS011;4577;48.704;9.000;2022-09-17T04:48:28;10.00;;;2.07;;
9082;SDS011;4577;48.704;9.000;2022-09-17T04:50:54;11.53;;;1.97;;
9082;SDS011;4577;48.704;9.000;2022-09-17T04:53:20;4.03;;;1.70;;
9082;SDS011;4577;48.704;9.000;2022-09-17T04:55:46;7.20;;;2.10;;
9082;SDS011;4577;48.704;9.000;2022-09-17T04:58:12;6.50;;;2.17;;
9082;SDS011;4577;48.704;9.000;2022-09-17T05:00:38;21.63;;;2.50;;
9082;SDS011;4577;48.704;9.000;2022-09-17T05:03:06;8.07;;;2.13;;
9082;SDS011;4577;48.704;9.000;2022-09-17T05:05:32;5.33;;;2.23;;
9082;SDS011;4577;48.704;9.000;2022-09-17T05:07:59;10.53;;;2.67;;
9082;SDS011;4577;48.704;9.000;2022-09-17T05:10:25;9.50;;;2.40;;
9082;SDS011;4577;48.704;9.000;2022-09-17T05:12:51;4.13;;;1.97;;
9082;SDS011;4577;48.704;9.000;2022-09-17T05:15:18;6.90;;;2.60;;
9082;SDS011;4577;48.704;9.000;2022-09-17T05:17:45;4.60;;;1.80;;
9082;SDS011;4577;48.704;9.000;2022-09-17T05:20:11;11.03;;;2.20;;
9082;SDS011;4577;48.704;9.000;2022-09-17T05:22:41;6.10;;;2.40;;
9082;SDS011;4577;48.704;9.000;2022-09-17T05:25:08;9.53;;;2.63;;
9082;SDS011;4577;48.704;9.000;2022-09-17T05:27:34;4.83;;;1.80;;
9082;SDS011;4577;48.704;9.000;2022-09-17T05:30:00;11.23;;;2.37;;
9082;SDS011;4577;48.704;9.000;2022-09-17T05:32:26;5.70;;;2.30;;
9082;SDS011;4577;48.704;9.000;2022-09-17T05:34:52;7.00;;;2.60;;
9082;SDS011;4577;48.704;9.000;2022-09-17T05:37:20;5.63;;;2.00;;
9082;SDS011;4577;48.704;9.000;2022-09-17T05:39:46;9.90;;;2.70;;
9082;SDS011;4577;48.704;9.000;2022-09-17T05:42:11;4.60;;;2.47;;
9082;SDS011;4577;48.704;9.000;2022-09-17T05:44:37;8.10;;;2.13;;
9082;SDS011;4577;48.704;9.000;2022-09-17T05:47:03;8.97;;;2.23;;
9082;SDS011;4577;48.704;9.000;2022-09-17T05:49:29;18.60;;;2.53;;
9082;SDS011;4577;48.704;9.000;2022-09-17T05:51:55;5.20;;;2.43;;
9082;SDS011;4577;48.704;9.000;2022-09-17T05:54:21;5.93;;;2.80;;
9082;SDS011;4577;48.704;9.000;2022-09-17T05:56:47;8.10;;;2.50;;
9082;SDS011;4577;48.704;9.000;2022-09-17T05:59:17;12.33;;;2.60;;
9082;SDS011;4577;48.704;9.000;2022-09-17T06:01:43;11.13;;;3.10;;
9082;SDS011;4577;48.704;9.000;2022-09-17T06:04:10;10.30;;;3.90;;
9082;SDS011;4577;48.704;9.000;2022-09-17T06:06:36;6.67;;;2.80;;
9082;SDS011;4577;48.704;9.000;2022-09-17T06:09:03;9.33;;;3.00;;
9082;SDS011;4577;48.704;9.000;2022-09-17T06:11:30;8.33;;;2.83;;
9082;SDS011;4577;48.704;9.000;2022-09-17T06:13:56;5.77;;;2.60;;
9082;SDS011;4577;48.704;9.000;2022-09-17T06:16:22;7.67;;;2.70;;
9082;SDS011;4577;48.704;9.000;2022-09-17T06:18:48;8.67;;;2.40;;
9082;SDS011;4577;48.704;9.000;2022-09-17T06:21:14;3.27;;;2.10;;
9082;SDS011;4577;48.704;9.000;2022-09-17T06:23:43;5.70;;;2.77;;
9082;SDS011;4577;48.704;9.000;2022-09-17T06:26:10;3.53;;;2.50;;
9082;SDS011;4577;48.704;9.000;2022-09-17T06:28:36;13.40;;;5.40;;
9082;SDS011;4577;48.704;9.000;2022-09-17T06:31:03;6.77;;;2.70;;
9082;SDS011;4577;48.704;9.000;2022-09-17T06:33:30;12.00;;;3.90;;
9082;SDS011;4577;48.704;9.000;2022-09-17T06:36:00;7.87;;;2.10;;
9082;SDS011;4577;48.704;9.000;2022-09-17T06:38:31;9.10;;;3.03;;
9082;SDS011;4577;48.704;9.000;2022-09-17T06:40:58;8.03;;;2.77;;
9082;SDS011;4577;48.704;9.000;2022-09-17T06:43:24;8.27;;;2.53;;
9082;SDS011;4577;48.704;9.000;2022-09-17T06:45:51;8.13;;;2.90;;
9082;SDS011;4577;48.704;9.000;2022-09-17T06:48:28;5.43;;;2.37;;
9082;SDS011;4577;48.704;9.000;2022-09-17T06:50:54;5.73;;;2.70;;
9082;SDS011;4577;48.704;9.000;2022-09-17T06:53:21;4.73;;;2.33;;
9082;SDS011;4577;48.704;9.000;2022-09-17T06:55:48;4.50;;;2.50;;
9082;SDS011;4577;48.704;9.000;2022-09-17T06:58:14;9.47;;;3.07;;
9082;SDS011;4577;48.704;9.000;2022-09-17T07:00:40;5.53;;;2.30;;
9082;SDS011;4577;48.704;9.000;2022-09-17T07:03:07;14.83;;;2.70;;
9082;SDS011;4577;48.704;9.000;2022-09-17T07:05:34;7.93;;;2.53;;
9082;SDS011;4577;48.704;9.000;2022-09-17T07:08:00;6.43;;;3.33;;
9082;SDS011;4577;48.704;9.000;2022-09-17T07:10:27;5.90;;;2.80;;
9082;SDS011;4577;48.704;9.000;2022-09-17T07:12:53;4.83;;;2.60;;
9082;SDS011;4577;48.704;9.000;2022-09-17T07:15:19;5.20;;;2.60;;
9082;SDS011;4577;48.704;9.000;2022-09-17T07:17:46;8.30;;;2.40;;
9082;SDS011;4577;48.704;9.000;2022-09-17T07:20:12;6.17;;;2.77;;
9082;SDS011;4577;48.704;9.000;2022-09-17T07:22:38;3.97;;;2.17;;
9082;SDS011;4577;48.704;9.000;2022-09-17T07:25:04;5.07;;;2.47;;
9082;SDS011;4577;48.704;9.000;2022-09-17T07:27:31;3.63;;;2.40;;
9082;SDS011;4577;48.704;9.000;2022-09-17T07:29:57;5.33;;;2.87;;
9082;SDS011;4577;48.704;9.000;2022-09-17T07:32:23;3.00;;;2.07;;
9082;SDS011;4577;48.704;9.000;2022-09-17T07:34:49;4.23;;;2.30;;
9082;SDS011;4577;48.704;9.000;2022-09-17T07:37:16;4.90;;;2.60;;
9082;SDS011;4577;48.704;9.000;2022-09-17T07:39:42;5.70;;;2.80;;
9082;SDS011;4577;48.704;9.000;2022-09-17T07:42:09;6.47;;;2.57;;
9082;SDS011;4577;48.704;9.000;2022-09-17T07:44:35;3.10;;;2.20;;
9082;SDS011;4577;48.704;9.000;2022-09-17T07:47:01;2.63;;;2.27;;
9082;SDS011;4577;48.704;9.000;2022-09-17T07:49:27;4.10;;;2.50;;
9082;SDS011;4577;48.704;9.000;2022-09-17T07:51:53;8.00;;;2.63;;
9082;SDS011;4577;48.704;9.000;2022-09-17T07:54:19;4.30;;;2.80;;
9082;SDS011;4577;48.704;9.000;2022-09-17T07:56:46;4.73;;;2.80;;
9082;SDS011;4577;48.704;9.000;2022-09-17T07:59:12;4.00;;;2.93;;
9082;SDS011;4577;48.704;9.000;2022-09-17T08:01:39;3.93;;;2.50;;
9082;SDS011;4577;48.704;9.000;2022-09-17T08:04:05;6.30;;;2.87;;
9082;SDS011;4577;48.704;9.000;2022-09-17T08:06:34;4.20;;;2.40;;
9082;SDS011;4577;48.704;9.000;2022-09-17T08:09:01;3.10;;;2.60;;
9082;SDS011;4577;48.704;9.000;2022-09-17T08:11:28;3.00;;;2.17;;
9082;SDS011;4577;48.704;9.000;2022-09-17T08:13:55;5.80;;;2.70;;
9082;SDS011;4577;48.704;9.000;2022-09-17T08:16:21;2.97;;;2.60;;
9082;SDS011;4577;48.704;9.000;2022-09-17T08:18:48;7.63;;;2.83;;
9082;SDS011;4577;48.704;9.000;2022-09-17T08:21:15;5.70;;;2.70;;
9082;SDS011;4577;48.704;9.000;2022-09-17T08:23:44;5.43;;;2.80;;
9082;SDS011;4577;48.704;9.000;2022-09-17T08:26:20;4.83;;;2.60;;
9082;SDS011;4577;48.704;9.000;2022-09-17T08:28:53;6.47;;;2.60;;
9082;SDS011;4577;48.704;9.000;2022-09-17T08:31:20;4.50;;;2.93;;
9082;SDS011;4577;48.704;9.000;2022-09-17T08:33:48;7.23;;;2.90;;
9082;SDS011;4577;48.704;9.000;2022-09-17T08:36:15;11.70;;;4.07;;
9082;SDS011;4577;48.704;9.000;2022-09-17T08:38:42;12.27;;;3.97;;
9082;SDS011;4577;48.704;9.000;2022-09-17T08:46:23;8.53;;;2.90;;
9082;SDS011;4577;48.704;9.000;2022-09-17T08:54:46;9.03;;;2.80;;
9082;SDS011;4577;48.704;9.000;2022-09-17T08:57:38;9.10;;;2.90;;
9082;SDS011;4577;48.704;9.000;2022-09-17T09:00:18;13.67;;;3.30;;
9082;SDS011;4577;48.704;9.000;2022-09-17T09:07:44;10.40;;;3.00;;
9082;SDS011;4577;48.704;9.000;2022-09-17T09:10:16;6.87;;;2.83;;
9082;SDS011;4577;48.704;9.000;2022-09-17T09:12:43;6.40;;;2.53;;
9082;SDS011;4577;48.704;9.000;2022-09-17T09:17:58;10.80;;;2.80;;
9082;SDS011;4577;48.704;9.000;2022-09-17T09:20:42;13.03;;;3.40;;
9082;SDS011;4577;48.704;9.000;2022-09-17T09:23:17;9.80;;;2.60;;
9082;SDS011;4577;48.704;9.000;2022-09-17T09:34:54;7.57;;;2.30;;
9082;SDS011;4577;48.704;9.000;2022-09-17T09:37:25;5.97;;;2.80;;
9082;SDS011;4577;48.704;9.000;2022-09-17T09:39:54;10.07;;;3.20;;
9082;SDS011;4577;48.704;9.000;2022-09-17T09:42:32;17.40;;;3.23;;
9082;SDS011;4577;48.704;9.000;2022-09-17T09:45:05;19.57;;;4.17;;
9082;SDS011;4577;48.704;9.000;2022-09-17T09:56:32;18.80;;;4.20;;
9082;SDS011;4577;48.704;9.000;2022-09-17T09:59:11;10.63;;;3.30;;
9082;SDS011;4577;48.704;9.000;2022-09-17T10:01:39;10.93;;;2.53;;
9082;SDS011;4577;48.704;9.000;2022-09-17T10:04:14;5.77;;;2.60;;
9082;SDS011;4577;48.704;9.000;2022-09-17T10:06:45;5.00;;;2.67;;
9082;SDS011;4577;48.704;9.000;2022-09-17T10:09:13;8.60;;;2.97;;
9082;SDS011;4577;48.704;9.000;2022-09-17T10:12:31;10.63;;;2.30;;
9082;SDS011;4577;48.704;9.000;2022-09-17T10:14:45;5.20;;;2.23;;
9082;SDS011;4577;48.704;9.000;2022-09-17T10:19:37;9.70;;;2.70;;
9082;SDS011;4577;48.704;9.000;2022-09-17T10:22:22;4.50;;;2.90;;
9082;SDS011;4577;48.704;9.000;2022-09-17T10:24:54;10.17;;;2.60;;
9082;SDS011;4577;48.704;9.000;2022-09-17T10:27:23;9.00;;;2.60;;
9082;SDS011;4577;48.704;9.000;2022-09-17T10:30:00;5.90;;;2.37;;
9082;SDS011;4577;48.704;9.000;2022-09-17T10:32:32;8.40;;;2.93;;
9082;SDS011;4577;48.704;9.000;2022-09-17T10:37:48;3.77;;;1.97;;
9082;SDS011;4577;48.704;9.000;2022-09-17T10:42:45;5.70;;;2.70;;
9082;SDS011;4577;48.704;9.000;2022-09-17T10:45:25;12.60;;;2.57;;
9082;SDS011;4577;48.704;9.000;2022-09-17T10:47:52;6.73;;;2.10;;
9082;SDS011;4577;48.704;9.000;2022-09-17T10:50:26;7.97;;;2.17;;
9082;SDS011;4577;48.704;9.000;2022-09-17T10:52:56;7.13;;;1.97;;
9082;SDS011;4577;48.704;9.000;2022-09-17T10:55:32;9.10;;;2.30;;
9082;SDS011;4577;48.704;9.000;2022-09-17T11:11:56;7.27;;;1.83;;
9082;SDS011;4577;48.704;9.000;2022-09-17T11:14:44;5.57;;;1.77;;
9082;SDS011;4577;48.704;9.000;2022-09-17T11:25:55;6.20;;;1.70;;
9082;SDS011;4577;48.704;9.000;2022-09-17T11:36:47;4.40;;;1.50;;
9082;SDS011;4577;48.704;9.000;2022-09-17T11:39:33;5.00;;;1.30;;
9082;SDS011;4577;48.704;9.000;2022-09-17T11:42:06;4.80;;;1.50;;
9082;SDS011;4577;48.704;9.000;2022-09-17T11:44:40;7.80;;;1.30;;
9082;SDS011;4577;48.704;9.000;2022-09-17T11:47:24;6.43;;;1.50;;
9082;SDS011;4577;48.704;9.000;2022-09-17T11:49:56;4.63;;;1.30;;
9082;SDS011;4577;48.704;9.000;2022-09-17T11:52:40;2.83;;;1.50;;
9082;SDS011;4577;48.704;9.000;2022-09-17T11:58:26;9.83;;;1.80;;
9082;SDS011;4577;48.704;9.000;2022-09-17T12:09:30;4.37;;;1.53;;
9082;SDS011;4577;48.704;9.000;2022-09-17T12:12:17;4.83;;;1.60;;
9082;SDS011;4577;48.704;9.000;2022-09-17T12:14:49;3.30;;;1.20;;
9082;SDS011;4577;48.704;9.000;2022-09-17T12:17:22;4.93;;;1.40;;
9082;SDS011;4577;48.704;9.000;2022-09-17T12:19:56;3.90;;;1.40;;
9082;SDS011;4577;48.704;9.000;2022-09-17T12:22:31;5.83;;;1.70;;
9082;SDS011;4577;48.704;9.000;2022-09-17T12:25:00;3.03;;;1.40;;
9082;SDS011;4577;48.704;9.000;2022-09-17T12:27:29;5.90;;;1.67;;
9082;SDS011;4577;48.704;9.000;2022-09-17T12:30:10;3.00;;;1.70;;
9082;SDS011;4577;48.704;9.000;2022-09-17T12:32:54;4.20;;;1.67;;
9082;SDS011;4577;48.704;9.000;2022-09-17T12:35:45;5.60;;;1.57;;
9082;SDS011;4577;48.704;9.000;2022-09-17T12:41:26;4.23;;;1.60;;
9082;SDS011;4577;48.704;9.000;2022-09-17T13:00:58;3.60;;;1.67;;
9082;SDS011;4577;48.704;9.000;2022-09-17T13:03:40;5.33;;;1.80;;
9082;SDS011;4577;48.704;9.000;2022-09-17T13:11:54;4.10;;;1.70;;
9082;SDS011;4577;48.704;9.000;2022-09-17T13:19:40;2.67;;;1.67;;
9082;SDS011;4577;48.704;9.000;2022-09-17T13:22:43;6.53;;;2.87;;
9082;SDS011;4577;48.704;9.000;2022-09-17T13:25:11;4.97;;;2.23;;
9082;SDS011;4577;48.704;9.000;2022-09-17T13:27:39;5.53;;;2.63;;
9082;SDS011;4577;48.704;9.000;2022-09-17T13:30:09;3.47;;;2.10;;
9082;SDS011;4577;48.704;9.000;2022-09-17T13:37:37;3.20;;;2.07;;
9082;SDS011;4577;48.704;9.000;2022-09-17T13:40:21;5.50;;;2.23;;
9082;SDS011;4577;48.704;9.000;2022-09-17T13:45:27;3.00;;;1.90;;
9082;SDS011;4577;48.704;9.000;2022-09-17T13:48:08;6.17;;;1.70;;
9082;SDS011;4577;48.704;9.000;2022-09-17T13:50:36;5.90;;;2.17;;
9082;SDS011;4577;48.704;9.000;2022-09-17T13:55:57;3.83;;;2.30;;
9082;SDS011;4577;48.704;9.000;2022-09-17T13:58:29;4.10;;;1.70;;
9082;SDS011;4577;48.704;9.000;2022-09-17T14:00:58;3.10;;;1.70;;
9082;SDS011;4577;48.704;9.000;2022-09-17T14:24:24;3.03;;;1.77;;
9082;SDS011;4577;48.704;9.000;2022-09-17T14:26:56;4.93;;;1.90;;
9082;SDS011;4577;48.704;9.000;2022-09-17T14:32:39;5.50;;;2.30;;
9082;SDS011;4577;48.704;9.000;2022-09-17T14:35:14;6.70;;;2.17;;
9082;SDS011;4577;48.704;9.000;2022-09-17T14:37:59;3.37;;;2.20;;
9082;SDS011;4577;48.704;9.000;2022-09-17T14:40:34;3.50;;;2.27;;
9082;SDS011;4577;48.704;9.000;2022-09-17T14:43:09;4.07;;;2.00;;
9082;SDS011;4577;48.704;9.000;2022-09-17T14:45:46;3.10;;;1.70;;
9082;SDS011;4577;48.704;9.000;2022-09-17T14:48:16;1.90;;;1.50;;
9082;SDS011;4577;48.704;9.000;2022-09-17T14:53:48;3.63;;;1.80;;
9082;SDS011;4577;48.704;9.000;2022-09-17T14:56:34;4.80;;;1.70;;
9082;SDS011;4577;48.704;9.000;2022-09-17T14:59:19;4.20;;;1.90;;
9082;SDS011;4577;48.704;9.000;2022-09-17T15:02:22;4.77;;;1.90;;
9082;SDS011;4577;48.704;9.000;2022-09-17T15:04:57;6.43;;;2.30;;
9082;SDS011;4577;48.704;9.000;2022-09-17T15:07:24;34.03;;;2.50;;
9082;SDS011;4577;48.704;9.000;2022-09-17T15:09:51;5.80;;;1.67;;
9082;SDS011;4577;48.704;9.000;2022-09-17T15:12:20;3.77;;;2.00;;
9082;SDS011;4577;48.704;9.000;2022-09-17T15:14:50;3.97;;;1.90;;
9082;SDS011;4577;48.704;9.000;2022-09-17T15:17:17;3.40;;;1.80;;
9082;SDS011;4577;48.704;9.000;2022-09-17T15:19:47;10.27;;;1.93;;
9082;SDS011;4577;48.704;9.000;2022-09-17T15:22:28;6.67;;;1.97;;
9082;SDS011;4577;48.704;9.000;2022-09-17T15:25:02;1.90;;;1.40;;
9082;SDS011;4577;48.704;9.000;2022-09-17T15:27:36;5.97;;;2.47;;
9082;SDS011;4577;48.704;9.000;2022-09-17T15:30:13;3.83;;;1.80;;
9082;SDS011;4577;48.704;9.000;2022-09-17T15:32:41;1.90;;;1.33;;
9082;SDS011;4577;48.704;9.000;2022-09-17T15:37:43;7.90;;;3.27;;
9082;SDS011;4577;48.704;9.000;2022-09-17T15:42:51;6.30;;;1.90;;
9082;SDS011;4577;48.704;9.000;2022-09-17T15:45:20;6.70;;;2.10;;
9082;SDS011;4577;48.704;9.000;2022-09-17T15:47:52;6.40;;;2.00;;
9082;SDS011;4577;48.704;9.000;2022-09-17T15:50:32;4.50;;;2.00;;
9082;SDS011;4577;48.704;9.000;2022-09-17T15:53:10;13.93;;;2.40;;
9082;SDS011;4577;48.704;9.000;2022-09-17T15:55:42;4.23;;;1.77;;
9082;SDS011;4577;48.704;9.000;2022-09-17T15:58:20;5.03;;;2.00;;
9082;SDS011;4577;48.704;9.000;2022-09-17T16:00:46;5.70;;;1.87;;
9082;SDS011;4577;48.704;9.000;2022-09-17T16:06:50;6.13;;;2.00;;
9082;SDS011;4577;48.704;9.000;2022-09-17T16:08:57;3.70;;;1.77;;
9082;SDS011;4577;48.704;9.000;2022-09-17T16:11:25;5.17;;;1.53;;
9082;SDS011;4577;48.704;9.000;2022-09-17T16:13:55;4.03;;;1.80;;
9082;SDS011;4577;48.704;9.000;2022-09-17T16:16:23;4.93;;;1.70;;
9082;SDS011;4577;48.704;9.000;2022-09-17T16:18:56;5.23;;;1.40;;
9082;SDS011;4577;48.704;9.000;2022-09-17T16:21:22;5.47;;;1.50;;
9082;SDS011;4577;48.704;9.000;2022-09-17T16:23:49;3.53;;;1.47;;
9082;SDS011;4577;48.704;9.000;2022-09-17T16:26:18;5.20;;;1.60;;
9082;SDS011;4577;48.704;9.000;2022-09-17T16:28:55;8.70;;;1.57;;
9082;SDS011;4577;48.704;9.000;2022-09-17T16:31:26;4.97;;;1.50;;
9082;SDS011;4577;48.704;9.000;2022-09-17T16:33:52;3.70;;;1.60;;
9082;SDS011;4577;48.704;9.000;2022-09-17T16:36:19;4.87;;;1.40;;
9082;SDS011;4577;48.704;9.000;2022-09-17T16:38:45;4.00;;;1.57;;
9082;SDS011;4577;48.704;9.000;2022-09-17T16:41:11;3.70;;;1.70;;
9082;SDS011;4577;48.704;9.000;2022-09-17T16:43:37;7.03;;;1.50;;
9082;SDS011;4577;48.704;9.000;2022-09-17T16:46:07;3.10;;;1.30;;
9082;SDS011;4577;48.704;9.000;2022-09-17T16:48:34;2.60;;;1.40;;
9082;SDS011;4577;48.704;9.000;2022-09-17T16:51:07;6.30;;;1.60;;
9082;SDS011;4577;48.704;9.000;2022-09-17T16:53:34;5.13;;;1.70;;
9082;SDS011;4577;48.704;9.000;2022-09-17T16:56:00;3.37;;;1.80;;
9082;SDS011;4577;48.704;9.000;2022-09-17T16:58:26;7.00;;;1.73;;
9082;SDS011;4577;48.704;9.000;2022-09-17T17:00:53;3.20;;;1.40;;
9082;SDS011;4577;48.704;9.000;2022-09-17T17:03:19;3.93;;;1.47;;
9082;SDS011;4577;48.704;9.000;2022-09-17T17:05:45;6.03;;;1.70;;
9082;SDS011;4577;48.704;9.000;2022-09-17T17:08:11;7.57;;;1.80;;
9082;SDS011;4577;48.704;9.000;2022-09-17T17:10:38;4.97;;;1.77;;
9082;SDS011;4577;48.704;9.000;2022-09-17T17:13:04;4.93;;;1.73;;
9082;SDS011;4577;48.704;9.000;2022-09-17T17:15:30;5.73;;;1.70;;
9082;SDS011;4577;48.704;9.000;2022-09-17T17:17:56;5.30;;;1.70;;
9082;SDS011;4577;48.704;9.000;2022-09-17T17:20:23;8.20;;;1.70;;
9082;SDS011;4577;48.704;9.000;2022-09-17T17:22:49;9.63;;;2.10;;
9082;SDS011;4577;48.704;9.000;2022-09-17T17:25:15;9.37;;;1.73;;
9082;SDS011;4577;48.704;9.000;2022-09-17T17:27:42;5.47;;;1.93;;
9082;SDS011;4577;48.704;9.000;2022-09-17T17:30:08;4.57;;;1.60;;
9082;SDS011;4577;48.704;9.000;2022-09-17T17:32:40;8.20;;;1.57;;
9082;SDS011;4577;48.704;9.000;2022-09-17T17:35:07;4.43;;;1.77;;
9082;SDS011;4577;48.704;9.000;2022-09-17T17:37:34;4.67;;;1.60;;
9082;SDS011;4577;48.704;9.000;2022-09-17T17:40:00;3.97;;;1.47;;
9082;SDS011;4577;48.704;9.000;2022-09-17T17:42:30;1.97;;;1.47;;
9082;SDS011;4577;48.704;9.000;2022-09-17T17:45:02;7.37;;;1.90;;
9082;SDS011;4577;48.704;9.000;2022-09-17T17:47:28;6.17;;;1.50;;
9082;SDS011;4577;48.704;9.000;2022-09-17T17:49:54;7.73;;;1.63;;
9082;SDS011;4577;48.704;9.000;2022-09-17T17:52:20;4.40;;;1.90;;
9082;SDS011;4577;48.704;9.000;2022-09-17T17:54:46;4.87;;;1.60;;
9082;SDS011;4577;48.704;9.000;2022-09-17T17:57:12;3.00;;;1.57;;
9082;SDS011;4577;48.704;9.000;2022-09-17T17:59:39;3.07;;;1.50;;
9082;SDS011;4577;48.704;9.000;2022-09-17T18:04:52;3.70;;;1.70;;
9082;SDS011;4577;48.704;9.000;2022-09-17T18:07:18;3.57;;;1.77;;
9082;SDS011;4577;48.704;9.000;2022-09-17T18:09:44;2.80;;;1.80;;
9082;SDS011;4577;48.704;9.000;2022-09-17T18:12:11;2.90;;;1.60;;
9082;SDS011;4577;48.704;9.000;2022-09-17T18:14:37;2.43;;;1.40;;
9082;SDS011;4577;48.704;9.000;2022-09-17T18:17:03;11.00;;;1.60;;
9082;SDS011;4577;48.704;9.000;2022-09-17T18:19:29;2.63;;;1.40;;
9082;SDS011;4577;48.704;9.000;2022-09-17T18:21:55;4.03;;;1.80;;
9082;SDS011;4577;48.704;9.000;2022-09-17T18:24:21;2.87;;;1.80;;
9082;SDS011;4577;48.704;9.000;2022-09-17T18:26:47;3.27;;;1.50;;
9082;SDS011;4577;48.704;9.000;2022-09-17T18:29:14;4.43;;;1.70;;
9082;SDS011;4577;48.704;9.000;2022-09-17T18:31:40;3.20;;;1.40;;
9082;SDS011;4577;48.704;9.000;2022-09-17T18:34:09;2.00;;;1.50;;
9082;SDS011;4577;48.704;9.000;2022-09-17T18:36:37;2.43;;;1.30;;
9082;SDS011;4577;48.704;9.000;2022-09-17T18:39:04;1.97;;;1.30;;
9082;SDS011;4577;48.704;9.000;2022-09-17T18:41:31;3.87;;;1.50;;
9082;SDS011;4577;48.704;9.000;2022-09-17T18:44:01;2.17;;;1.40;;
9082;SDS011;4577;48.704;9.000;2022-09-17T18:46:27;3.77;;;1.20;;
9082;SDS011;4577;48.704;9.000;2022-09-17T18:48:54;5.70;;;1.37;;
9082;SDS011;4577;48.704;9.000;2022-09-17T18:51:21;2.67;;;1.23;;
9082;SDS011;4577;48.704;9.000;2022-09-17T18:53:48;3.70;;;1.30;;
9082;SDS011;4577;48.704;9.000;2022-09-17T18:56:16;2.00;;;1.10;;
9082;SDS011;4577;48.704;9.000;2022-09-17T18:58:43;1.70;;;1.30;;
9082;SDS011;4577;48.704;9.000;2022-09-17T19:04:32;4.37;;;1.50;;
9082;SDS011;4577;48.704;9.000;2022-09-17T19:06:58;2.57;;;1.33;;
9082;SDS011;4577;48.704;9.000;2022-09-17T19:09:24;3.30;;;1.40;;
9082;SDS011;4577;48.704;9.000;2022-09-17T19:11:50;1.80;;;1.30;;
9082;SDS011;4577;48.704;9.000;2022-09-17T19:14:17;2.00;;;1.40;;